KVCT/VCT METAR and TAF weather

Enter ICAO airport designator
Station Type Date Time Source
KVCT METAR 2019/02/16 02:51 UTC NOAA

KVCT 160251Z 18007KT 3SM BR OVC003 19/18 A2976 RMK AO2 SLP075 T01890183 51016 $


Station Type Date Time Source
KVCT Decoded METAR 2019/02/16 02:51 UTC NOAA

VICTORIA REGIONAL AIRPORT, TX, United States (KVCT) 28-52N 96-56W 31M
Feb 15, 2019 - 09:51 PM EST / 2019.02.16 0251 UTC
Wind: from the S (180 degrees) at 8 MPH (7 KT):0
Visibility: 3 mile(s):0
Sky conditions: overcast
Weather: mist
Temperature: 66.0 F (18.9 C)
Dew Point: 64.9 F (18.3 C)
Relative Humidity: 96%
Pressure (altimeter): 29.76 in. Hg (1007 hPa)
Pressure tendency: 0.05 inches (1.6 hPa) higher than three hours ago
ob: KVCT 160251Z 18007KT 3SM BR OVC003 19/18 A2976 RMK AO2 SLP075 T01890183 51016
cycle: 3

Station Type Date Time Source
KVCT TAF 2019/02/16 03:40 UTC NOAA

TAF
AMD KVCT 160238Z 1603/1624 17010KT 4SM BR BKN005
FM160600 18004KT 2SM BR OVC005
TEMPO 1607/1611 1/2SM FG OVC003
FM161100 01007KT 1SM BR OVC004
FM161500 36010KT P6SM OVC008
FM161900 02008KT P6SM BKN015
FM162200 05007KT P6SM BKN025


Example: see airport list